sensor_id;sensor_type;location;lat;lon;timestamp;P1;durP1;ratioP1;P2;durP2;ratioP2
13269;SDS011;6703;51.994;7.570;2023-04-25T00:01:57;14.55;;;4.35;;
13269;SDS011;6703;51.994;7.570;2023-04-25T00:04:26;15.55;;;4.30;;
13269;SDS011;6703;51.994;7.570;2023-04-25T00:06:56;13.63;;;4.32;;
13269;SDS011;6703;51.994;7.570;2023-04-25T00:09:24;13.73;;;3.55;;
13269;SDS011;6703;51.994;7.570;2023-04-25T00:11:52;15.60;;;4.60;;
13269;SDS011;6703;51.994;7.570;2023-04-25T00:14:21;14.70;;;4.05;;
13269;SDS011;6703;51.994;7.570;2023-04-25T00:16:49;14.33;;;4.07;;
13269;SDS011;6703;51.994;7.570;2023-04-25T00:19:17;17.23;;;4.20;;
13269;SDS011;6703;51.994;7.570;2023-04-25T00:21:45;15.50;;;4.15;;
13269;SDS011;6703;51.994;7.570;2023-04-25T00:24:13;19.13;;;4.45;;
13269;SDS011;6703;51.994;7.570;2023-04-25T00:26:41;12.13;;;3.33;;
13269;SDS011;6703;51.994;7.570;2023-04-25T00:29:09;14.30;;;4.47;;
13269;SDS011;6703;51.994;7.570;2023-04-25T00:31:38;12.35;;;3.38;;
13269;SDS011;6703;51.994;7.570;2023-04-25T00:34:06;10.40;;;3.65;;
13269;SDS011;6703;51.994;7.570;2023-04-25T00:36:34;13.57;;;4.55;;
13269;SDS011;6703;51.994;7.570;2023-04-25T00:39:02;15.90;;;4.55;;
13269;SDS011;6703;51.994;7.570;2023-04-25T00:41:30;12.60;;;4.00;;
13269;SDS011;6703;51.994;7.570;2023-04-25T00:43:58;15.27;;;4.38;;
13269;SDS011;6703;51.994;7.570;2023-04-25T00:46:26;16.38;;;4.20;;
13269;SDS011;6703;51.994;7.570;2023-04-25T00:48:55;13.40;;;3.63;;
13269;SDS011;6703;51.994;7.570;2023-04-25T00:51:23;18.73;;;4.22;;
13269;SDS011;6703;51.994;7.570;2023-04-25T00:53:52;11.83;;;3.80;;
13269;SDS011;6703;51.994;7.570;2023-04-25T00:56:20;10.13;;;3.30;;
13269;SDS011;6703;51.994;7.570;2023-04-25T00:58:48;10.50;;;3.20;;
13269;SDS011;6703;51.994;7.570;2023-04-25T01:01:17;11.73;;;3.90;;
13269;SDS011;6703;51.994;7.570;2023-04-25T01:03:45;10.35;;;3.45;;
13269;SDS011;6703;51.994;7.570;2023-04-25T01:06:16;11.27;;;3.55;;
13269;SDS011;6703;51.994;7.570;2023-04-25T01:08:44;11.40;;;4.18;;
13269;SDS011;6703;51.994;7.570;2023-04-25T01:11:11;12.05;;;3.15;;
13269;SDS011;6703;51.994;7.570;2023-04-25T01:13:40;9.37;;;3.07;;
13269;SDS011;6703;51.994;7.570;2023-04-25T01:16:07;9.55;;;3.05;;
13269;SDS011;6703;51.994;7.570;2023-04-25T01:18:38;9.80;;;3.20;;
13269;SDS011;6703;51.994;7.570;2023-04-25T01:21:08;6.25;;;2.97;;
13269;SDS011;6703;51.994;7.570;2023-04-25T01:23:37;8.23;;;3.07;;
13269;SDS011;6703;51.994;7.570;2023-04-25T01:26:06;10.88;;;3.15;;
13269;SDS011;6703;51.994;7.570;2023-04-25T01:28:34;8.57;;;2.90;;
13269;SDS011;6703;51.994;7.570;2023-04-25T01:31:02;8.50;;;3.08;;
13269;SDS011;6703;51.994;7.570;2023-04-25T01:33:30;9.45;;;2.83;;
13269;SDS011;6703;51.994;7.570;2023-04-25T01:35:58;14.90;;;3.47;;
13269;SDS011;6703;51.994;7.570;2023-04-25T01:38:27;11.18;;;3.08;;
13269;SDS011;6703;51.994;7.570;2023-04-25T01:40:55;10.60;;;3.10;;
13269;SDS011;6703;51.994;7.570;2023-04-25T01:43:23;18.30;;;3.42;;
13269;SDS011;6703;51.994;7.570;2023-04-25T01:46:07;13.55;;;3.03;;
13269;SDS011;6703;51.994;7.570;2023-04-25T01:48:35;10.30;;;3.13;;
13269;SDS011;6703;51.994;7.570;2023-04-25T01:51:03;11.75;;;3.15;;
13269;SDS011;6703;51.994;7.570;2023-04-25T01:53:53;15.10;;;3.03;;
13269;SDS011;6703;51.994;7.570;2023-04-25T01:56:21;15.07;;;2.70;;
13269;SDS011;6703;51.994;7.570;2023-04-25T01:58:49;15.52;;;3.15;;
13269;SDS011;6703;51.994;7.570;2023-04-25T02:01:17;12.73;;;2.72;;
13269;SDS011;6703;51.994;7.570;2023-04-25T02:03:44;18.98;;;2.67;;
13269;SDS011;6703;51.994;7.570;2023-04-25T02:06:13;19.70;;;3.22;;
13269;SDS011;6703;51.994;7.570;2023-04-25T02:08:40;20.80;;;4.22;;
13269;SDS011;6703;51.994;7.570;2023-04-25T02:11:09;27.13;;;3.63;;
13269;SDS011;6703;51.994;7.570;2023-04-25T02:13:37;15.00;;;2.88;;
13269;SDS011;6703;51.994;7.570;2023-04-25T02:16:05;12.23;;;2.75;;
13269;SDS011;6703;51.994;7.570;2023-04-25T02:18:33;21.10;;;2.93;;
13269;SDS011;6703;51.994;7.570;2023-04-25T02:23:48;17.83;;;3.00;;
13269;SDS011;6703;51.994;7.570;2023-04-25T02:26:20;20.35;;;3.42;;
13269;SDS011;6703;51.994;7.570;2023-04-25T02:28:50;20.13;;;3.35;;
13269;SDS011;6703;51.994;7.570;2023-04-25T02:31:17;15.63;;;2.97;;
13269;SDS011;6703;51.994;7.570;2023-04-25T02:33:45;22.53;;;4.17;;
13269;SDS011;6703;51.994;7.570;2023-04-25T02:36:14;19.58;;;3.30;;
13269;SDS011;6703;51.994;7.570;2023-04-25T02:38:42;20.77;;;3.40;;
13269;SDS011;6703;51.994;7.570;2023-04-25T02:41:09;20.33;;;3.00;;
13269;SDS011;6703;51.994;7.570;2023-04-25T02:43:39;14.75;;;3.33;;
13269;SDS011;6703;51.994;7.570;2023-04-25T02:46:06;19.60;;;3.20;;
13269;SDS011;6703;51.994;7.570;2023-04-25T02:48:34;22.58;;;3.40;;
13269;SDS011;6703;51.994;7.570;2023-04-25T02:51:02;18.65;;;3.40;;
13269;SDS011;6703;51.994;7.570;2023-04-25T02:53:30;17.77;;;2.97;;
13269;SDS011;6703;51.994;7.570;2023-04-25T02:55:57;21.08;;;3.70;;
13269;SDS011;6703;51.994;7.570;2023-04-25T02:58:25;9.45;;;2.35;;
13269;SDS011;6703;51.994;7.570;2023-04-25T03:00:54;19.33;;;2.85;;
13269;SDS011;6703;51.994;7.570;2023-04-25T03:03:22;21.40;;;3.30;;
13269;SDS011;6703;51.994;7.570;2023-04-25T03:05:50;22.38;;;3.50;;
13269;SDS011;6703;51.994;7.570;2023-04-25T03:08:18;21.30;;;3.75;;
13269;SDS011;6703;51.994;7.570;2023-04-25T03:10:46;20.85;;;3.78;;
13269;SDS011;6703;51.994;7.570;2023-04-25T03:13:14;19.80;;;3.43;;
13269;SDS011;6703;51.994;7.570;2023-04-25T03:15:42;15.02;;;3.45;;
13269;SDS011;6703;51.994;7.570;2023-04-25T03:18:11;20.40;;;3.73;;
13269;SDS011;6703;51.994;7.570;2023-04-25T03:20:39;23.02;;;3.03;;
13269;SDS011;6703;51.994;7.570;2023-04-25T03:23:08;14.95;;;2.97;;
13269;SDS011;6703;51.994;7.570;2023-04-25T03:25:35;18.65;;;3.20;;
13269;SDS011;6703;51.994;7.570;2023-04-25T03:28:03;19.52;;;3.42;;
13269;SDS011;6703;51.994;7.570;2023-04-25T03:30:31;21.85;;;3.35;;
13269;SDS011;6703;51.994;7.570;2023-04-25T03:32:59;22.00;;;3.70;;
13269;SDS011;6703;51.994;7.570;2023-04-25T03:35:28;24.42;;;3.33;;
13269;SDS011;6703;51.994;7.570;2023-04-25T03:37:56;19.93;;;3.30;;
13269;SDS011;6703;51.994;7.570;2023-04-25T03:40:24;19.35;;;3.30;;
13269;SDS011;6703;51.994;7.570;2023-04-25T03:42:51;17.57;;;3.17;;
13269;SDS011;6703;51.994;7.570;2023-04-25T03:45:19;19.60;;;3.28;;
13269;SDS011;6703;51.994;7.570;2023-04-25T03:47:47;21.33;;;3.03;;
13269;SDS011;6703;51.994;7.570;2023-04-25T03:50:14;25.73;;;3.88;;
13269;SDS011;6703;51.994;7.570;2023-04-25T03:52:44;17.63;;;3.25;;
13269;SDS011;6703;51.994;7.570;2023-04-25T03:55:11;20.40;;;3.75;;
13269;SDS011;6703;51.994;7.570;2023-04-25T03:57:39;16.85;;;3.25;;
13269;SDS011;6703;51.994;7.570;2023-04-25T04:00:07;19.60;;;3.45;;
13269;SDS011;6703;51.994;7.570;2023-04-25T04:02:36;20.77;;;3.45;;
13269;SDS011;6703;51.994;7.570;2023-04-25T04:05:06;20.50;;;3.03;;
13269;SDS011;6703;51.994;7.570;2023-04-25T04:07:34;18.80;;;3.78;;
13269;SDS011;6703;51.994;7.570;2023-04-25T04:10:07;21.42;;;3.50;;
13269;SDS011;6703;51.994;7.570;2023-04-25T04:12:35;20.48;;;3.47;;
13269;SDS011;6703;51.994;7.570;2023-04-25T04:15:04;18.75;;;3.08;;
13269;SDS011;6703;51.994;7.570;2023-04-25T04:17:33;22.20;;;3.35;;
13269;SDS011;6703;51.994;7.570;2023-04-25T04:20:01;17.05;;;2.70;;
13269;SDS011;6703;51.994;7.570;2023-04-25T04:22:29;23.05;;;3.88;;
13269;SDS011;6703;51.994;7.570;2023-04-25T04:24:57;22.17;;;3.72;;
13269;SDS011;6703;51.994;7.570;2023-04-25T04:27:26;18.40;;;3.38;;
13269;SDS011;6703;51.994;7.570;2023-04-25T04:29:54;21.50;;;3.75;;
13269;SDS011;6703;51.994;7.570;2023-04-25T04:32:23;25.92;;;4.00;;
13269;SDS011;6703;51.994;7.570;2023-04-25T04:34:51;18.23;;;3.70;;
13269;SDS011;6703;51.994;7.570;2023-04-25T04:37:21;16.35;;;3.13;;
13269;SDS011;6703;51.994;7.570;2023-04-25T04:39:49;22.63;;;4.10;;
13269;SDS011;6703;51.994;7.570;2023-04-25T04:42:16;16.75;;;3.25;;
13269;SDS011;6703;51.994;7.570;2023-04-25T04:44:45;20.55;;;3.42;;
13269;SDS011;6703;51.994;7.570;2023-04-25T04:47:13;22.80;;;3.95;;
13269;SDS011;6703;51.994;7.570;2023-04-25T04:49:41;17.48;;;3.60;;
13269;SDS011;6703;51.994;7.570;2023-04-25T04:52:09;21.38;;;3.47;;
13269;SDS011;6703;51.994;7.570;2023-04-25T04:54:36;26.33;;;3.50;;
13269;SDS011;6703;51.994;7.570;2023-04-25T04:57:04;26.90;;;3.72;;
13269;SDS011;6703;51.994;7.570;2023-04-25T04:59:32;15.57;;;3.38;;
13269;SDS011;6703;51.994;7.570;2023-04-25T05:02:01;23.02;;;3.88;;
13269;SDS011;6703;51.994;7.570;2023-04-25T05:04:29;23.33;;;3.70;;
13269;SDS011;6703;51.994;7.570;2023-04-25T05:06:57;25.27;;;3.45;;
13269;SDS011;6703;51.994;7.570;2023-04-25T05:09:24;21.15;;;4.47;;
13269;SDS011;6703;51.994;7.570;2023-04-25T05:11:52;16.55;;;3.47;;
13269;SDS011;6703;51.994;7.570;2023-04-25T05:14:20;19.50;;;3.67;;
13269;SDS011;6703;51.994;7.570;2023-04-25T05:16:49;18.25;;;3.70;;
13269;SDS011;6703;51.994;7.570;2023-04-25T05:19:18;21.27;;;3.38;;
13269;SDS011;6703;51.994;7.570;2023-04-25T05:21:46;19.90;;;3.53;;
13269;SDS011;6703;51.994;7.570;2023-04-25T05:24:14;13.38;;;3.00;;
13269;SDS011;6703;51.994;7.570;2023-04-25T05:26:42;12.77;;;3.25;;
13269;SDS011;6703;51.994;7.570;2023-04-25T05:29:09;15.23;;;2.73;;
13269;SDS011;6703;51.994;7.570;2023-04-25T05:31:37;13.73;;;3.63;;
13269;SDS011;6703;51.994;7.570;2023-04-25T05:34:05;18.52;;;3.35;;
13269;SDS011;6703;51.994;7.570;2023-04-25T05:36:35;13.88;;;3.45;;
13269;SDS011;6703;51.994;7.570;2023-04-25T05:39:02;23.27;;;3.47;;
13269;SDS011;6703;51.994;7.570;2023-04-25T05:41:30;18.73;;;3.53;;
13269;SDS011;6703;51.994;7.570;2023-04-25T05:43:58;21.70;;;3.72;;
13269;SDS011;6703;51.994;7.570;2023-04-25T05:46:26;19.30;;;3.65;;
13269;SDS011;6703;51.994;7.570;2023-04-25T05:48:54;16.83;;;3.00;;
13269;SDS011;6703;51.994;7.570;2023-04-25T05:51:21;19.20;;;3.25;;
13269;SDS011;6703;51.994;7.570;2023-04-25T05:53:51;16.75;;;3.13;;
13269;SDS011;6703;51.994;7.570;2023-04-25T05:56:19;28.67;;;3.47;;
13269;SDS011;6703;51.994;7.570;2023-04-25T05:58:46;17.90;;;2.78;;
13269;SDS011;6703;51.994;7.570;2023-04-25T06:01:14;21.02;;;3.10;;
13269;SDS011;6703;51.994;7.570;2023-04-25T06:03:42;21.90;;;3.20;;
13269;SDS011;6703;51.994;7.570;2023-04-25T06:06:10;17.03;;;2.90;;
13269;SDS011;6703;51.994;7.570;2023-04-25T06:08:38;13.02;;;2.40;;
13269;SDS011;6703;51.994;7.570;2023-04-25T06:11:08;17.50;;;2.30;;
13269;SDS011;6703;51.994;7.570;2023-04-25T06:13:35;20.70;;;2.70;;
13269;SDS011;6703;51.994;7.570;2023-04-25T06:16:03;21.77;;;3.15;;
13269;SDS011;6703;51.994;7.570;2023-04-25T06:18:32;11.50;;;2.70;;
13269;SDS011;6703;51.994;7.570;2023-04-25T06:21:00;13.85;;;2.53;;
13269;SDS011;6703;51.994;7.570;2023-04-25T06:23:27;12.43;;;2.40;;
13269;SDS011;6703;51.994;7.570;2023-04-25T06:25:55;12.00;;;2.03;;
13269;SDS011;6703;51.994;7.570;2023-04-25T06:28:33;13.98;;;1.95;;
13269;SDS011;6703;51.994;7.570;2023-04-25T06:31:01;18.50;;;2.20;;
13269;SDS011;6703;51.994;7.570;2023-04-25T06:33:29;7.88;;;1.83;;
13269;SDS011;6703;51.994;7.570;2023-04-25T06:35:57;11.73;;;2.38;;
13269;SDS011;6703;51.994;7.570;2023-04-25T06:38:24;20.35;;;2.88;;
13269;SDS011;6703;51.994;7.570;2023-04-25T06:40:52;19.70;;;2.58;;
13269;SDS011;6703;51.994;7.570;2023-04-25T06:43:20;15.95;;;2.28;;
13269;SDS011;6703;51.994;7.570;2023-04-25T06:45:49;12.67;;;2.00;;
13269;SDS011;6703;51.994;7.570;2023-04-25T06:48:17;18.90;;;2.63;;
13269;SDS011;6703;51.994;7.570;2023-04-25T06:50:45;14.75;;;2.40;;
13269;SDS011;6703;51.994;7.570;2023-04-25T06:53:13;10.60;;;1.97;;
13269;SDS011;6703;51.994;7.570;2023-04-25T06:55:41;17.17;;;2.28;;
13269;SDS011;6703;51.994;7.570;2023-04-25T06:58:08;14.77;;;2.25;;
13269;SDS011;6703;51.994;7.570;2023-04-25T07:00:36;17.58;;;2.38;;
13269;SDS011;6703;51.994;7.570;2023-04-25T07:03:05;13.30;;;2.22;;
13269;SDS011;6703;51.994;7.570;2023-04-25T07:05:33;14.93;;;2.38;;
13269;SDS011;6703;51.994;7.570;2023-04-25T07:08:01;11.02;;;2.10;;
13269;SDS011;6703;51.994;7.570;2023-04-25T07:10:29;17.50;;;2.78;;
13269;SDS011;6703;51.994;7.570;2023-04-25T07:12:59;13.93;;;2.17;;
13269;SDS011;6703;51.994;7.570;2023-04-25T07:15:27;14.20;;;2.38;;
13269;SDS011;6703;51.994;7.570;2023-04-25T07:17:55;21.30;;;3.37;;
13269;SDS011;6703;51.994;7.570;2023-04-25T07:20:24;9.50;;;2.10;;
13269;SDS011;6703;51.994;7.570;2023-04-25T07:22:53;14.93;;;2.53;;
13269;SDS011;6703;51.994;7.570;2023-04-25T07:25:21;10.23;;;2.00;;
13269;SDS011;6703;51.994;7.570;2023-04-25T07:27:49;11.30;;;2.17;;
13269;SDS011;6703;51.994;7.570;2023-04-25T07:30:16;6.70;;;1.30;;
13269;SDS011;6703;51.994;7.570;2023-04-25T07:35:31;12.55;;;1.90;;
13269;SDS011;6703;51.994;7.570;2023-04-25T07:37:59;15.20;;;2.10;;
13269;SDS011;6703;51.994;7.570;2023-04-25T07:40:27;16.38;;;2.17;;
13269;SDS011;6703;51.994;7.570;2023-04-25T07:42:54;18.05;;;1.95;;
13269;SDS011;6703;51.994;7.570;2023-04-25T07:45:22;6.47;;;1.53;;
13269;SDS011;6703;51.994;7.570;2023-04-25T07:47:50;9.95;;;2.10;;
13269;SDS011;6703;51.994;7.570;2023-04-25T07:50:18;11.75;;;1.77;;
13269;SDS011;6703;51.994;7.570;2023-04-25T07:52:47;16.67;;;2.43;;
13269;SDS011;6703;51.994;7.570;2023-04-25T07:55:15;14.38;;;2.10;;
13269;SDS011;6703;51.994;7.570;2023-04-25T07:57:43;9.00;;;1.60;;
13269;SDS011;6703;51.994;7.570;2023-04-25T08:00:11;9.15;;;2.65;;
13269;SDS011;6703;51.994;7.570;2023-04-25T08:02:41;13.27;;;2.25;;
13269;SDS011;6703;51.994;7.570;2023-04-25T08:05:09;6.65;;;1.77;;
13269;SDS011;6703;51.994;7.570;2023-04-25T08:07:40;5.82;;;1.33;;
13269;SDS011;6703;51.994;7.570;2023-04-25T08:10:11;16.08;;;2.70;;
13269;SDS011;6703;51.994;7.570;2023-04-25T08:12:38;10.10;;;2.42;;
13269;SDS011;6703;51.994;7.570;2023-04-25T08:15:07;13.10;;;1.95;;
13269;SDS011;6703;51.994;7.570;2023-04-25T08:17:35;6.53;;;1.55;;
13269;SDS011;6703;51.994;7.570;2023-04-25T08:20:04;16.02;;;2.13;;
13269;SDS011;6703;51.994;7.570;2023-04-25T08:22:32;8.07;;;1.52;;
13269;SDS011;6703;51.994;7.570;2023-04-25T08:25:01;5.95;;;1.50;;
13269;SDS011;6703;51.994;7.570;2023-04-25T08:27:30;12.33;;;1.87;;
13269;SDS011;6703;51.994;7.570;2023-04-25T08:29:58;10.40;;;1.35;;
13269;SDS011;6703;51.994;7.570;2023-04-25T08:32:26;8.90;;;2.00;;
13269;SDS011;6703;51.994;7.570;2023-04-25T08:34:56;5.10;;;1.10;;
13269;SDS011;6703;51.994;7.570;2023-04-25T08:37:23;11.07;;;1.83;;
13269;SDS011;6703;51.994;7.570;2023-04-25T08:39:51;14.63;;;2.20;;
13269;SDS011;6703;51.994;7.570;2023-04-25T08:42:19;10.55;;;1.98;;
13269;SDS011;6703;51.994;7.570;2023-04-25T08:44:50;9.70;;;1.50;;
13269;SDS011;6703;51.994;7.570;2023-04-25T08:47:21;11.83;;;1.67;;
13269;SDS011;6703;51.994;7.570;2023-04-25T08:49:50;8.48;;;1.38;;
13269;SDS011;6703;51.994;7.570;2023-04-25T08:52:21;8.63;;;1.50;;
13269;SDS011;6703;51.994;7.570;2023-04-25T08:54:50;7.03;;;1.05;;
13269;SDS011;6703;51.994;7.570;2023-04-25T08:57:18;7.70;;;1.63;;
13269;SDS011;6703;51.994;7.570;2023-04-25T08:59:47;8.80;;;1.55;;
13269;SDS011;6703;51.994;7.570;2023-04-25T09:02:16;9.65;;;1.45;;
13269;SDS011;6703;51.994;7.570;2023-04-25T09:04:47;7.95;;;1.13;;
13269;SDS011;6703;51.994;7.570;2023-04-25T09:07:14;5.97;;;1.20;;
13269;SDS011;6703;51.994;7.570;2023-04-25T09:09:44;4.55;;;1.33;;
13269;SDS011;6703;51.994;7.570;2023-04-25T09:12:12;8.90;;;1.83;;
13269;SDS011;6703;51.994;7.570;2023-04-25T09:14:40;5.82;;;1.23;;
13269;SDS011;6703;51.994;7.570;2023-04-25T09:17:11;5.68;;;1.08;;
13269;SDS011;6703;51.994;7.570;2023-04-25T09:19:40;7.50;;;1.40;;
13269;SDS011;6703;51.994;7.570;2023-04-25T09:22:10;6.25;;;1.13;;
13269;SDS011;6703;51.994;7.570;2023-04-25T09:24:38;4.80;;;1.02;;
13269;SDS011;6703;51.994;7.570;2023-04-25T09:27:08;9.95;;;1.27;;
13269;SDS011;6703;51.994;7.570;2023-04-25T09:29:37;3.33;;;0.77;;
13269;SDS011;6703;51.994;7.570;2023-04-25T09:32:26;4.05;;;0.70;;
13269;SDS011;6703;51.994;7.570;2023-04-25T09:34:56;10.18;;;2.53;;
13269;SDS011;6703;51.994;7.570;2023-04-25T09:37:25;3.00;;;0.95;;
13269;SDS011;6703;51.994;7.570;2023-04-25T09:39:54;7.85;;;1.65;;
13269;SDS011;6703;51.994;7.570;2023-04-25T09:42:23;6.97;;;1.33;;
13269;SDS011;6703;51.994;7.570;2023-04-25T09:44:52;15.98;;;1.45;;
13269;SDS011;6703;51.994;7.570;2023-04-25T09:47:22;11.40;;;1.30;;
13269;SDS011;6703;51.994;7.570;2023-04-25T09:49:50;7.70;;;1.15;;
13269;SDS011;6703;51.994;7.570;2023-04-25T09:52:20;7.18;;;1.40;;
13269;SDS011;6703;51.994;7.570;2023-04-25T09:54:51;6.78;;;1.27;;
13269;SDS011;6703;51.994;7.570;2023-04-25T09:57:19;7.63;;;1.40;;
13269;SDS011;6703;51.994;7.570;2023-04-25T09:59:48;13.50;;;1.50;;
13269;SDS011;6703;51.994;7.570;2023-04-25T10:02:17;5.18;;;1.05;;
13269;SDS011;6703;51.994;7.570;2023-04-25T10:04:47;10.25;;;1.13;;
13269;SDS011;6703;51.994;7.570;2023-04-25T10:07:18;4.88;;;1.05;;
13269;SDS011;6703;51.994;7.570;2023-04-25T10:09:53;6.30;;;1.23;;
13269;SDS011;6703;51.994;7.570;2023-04-25T10:12:22;5.70;;;1.42;;
13269;SDS011;6703;51.994;7.570;2023-04-25T10:14:50;4.32;;;0.82;;
13269;SDS011;6703;51.994;7.570;2023-04-25T10:17:19;3.22;;;0.98;;
13269;SDS011;6703;51.994;7.570;2023-04-25T10:19:47;4.97;;;1.27;;
13269;SDS011;6703;51.994;7.570;2023-04-25T10:22:17;2.88;;;0.82;;
13269;SDS011;6703;51.994;7.570;2023-04-25T10:24:47;2.78;;;0.98;;
13269;SDS011;6703;51.994;7.570;2023-04-25T10:27:15;6.20;;;1.30;;
13269;SDS011;6703;51.994;7.570;2023-04-25T10:29:44;5.88;;;1.17;;
13269;SDS011;6703;51.994;7.570;2023-04-25T10:32:12;5.72;;;1.48;;
13269;SDS011;6703;51.994;7.570;2023-04-25T10:34:41;3.97;;;0.93;;
13269;SDS011;6703;51.994;7.570;2023-04-25T10:37:30;4.30;;;0.80;;
13269;SDS011;6703;51.994;7.570;2023-04-25T10:39:59;4.65;;;1.05;;
13269;SDS011;6703;51.994;7.570;2023-04-25T10:42:36;25.88;;;1.90;;
13269;SDS011;6703;51.994;7.570;2023-04-25T10:45:04;6.80;;;1.30;;
13269;SDS011;6703;51.994;7.570;2023-04-25T10:47:34;8.17;;;1.10;;
13269;SDS011;6703;51.994;7.570;2023-04-25T10:50:04;6.70;;;1.13;;
13269;SDS011;6703;51.994;7.570;2023-04-25T10:52:33;4.88;;;1.25;;
13269;SDS011;6703;51.994;7.570;2023-04-25T10:55:03;7.65;;;1.23;;
13269;SDS011;6703;51.994;7.570;2023-04-25T10:57:32;7.75;;;1.20;;
13269;SDS011;6703;51.994;7.570;2023-04-25T11:00:11;9.27;;;1.40;;
13269;SDS011;6703;51.994;7.570;2023-04-25T11:02:41;8.30;;;1.30;;
13269;SDS011;6703;51.994;7.570;2023-04-25T11:05:15;7.43;;;1.10;;
13269;SDS011;6703;51.994;7.570;2023-04-25T11:07:49;7.93;;;1.03;;
13269;SDS011;6703;51.994;7.570;2023-04-25T11:10:34;9.18;;;1.52;;
13269;SDS011;6703;51.994;7.570;2023-04-25T11:13:02;3.88;;;1.13;;
13269;SDS011;6703;51.994;7.570;2023-04-25T11:15:31;7.43;;;0.95;;
13269;SDS011;6703;51.994;7.570;2023-04-25T11:17:59;8.23;;;1.27;;
13269;SDS011;6703;51.994;7.570;2023-04-25T11:20:27;6.15;;;1.23;;
13269;SDS011;6703;51.994;7.570;2023-04-25T11:22:57;9.07;;;1.17;;
13269;SDS011;6703;51.994;7.570;2023-04-25T11:25:25;5.57;;;1.00;;
13269;SDS011;6703;51.994;7.570;2023-04-25T11:27:55;3.50;;;0.65;;
13269;SDS011;6703;51.994;7.570;2023-04-25T11:30:25;8.82;;;1.42;;
13269;SDS011;6703;51.994;7.570;2023-04-25T11:32:53;5.88;;;1.17;;
13269;SDS011;6703;51.994;7.570;2023-04-25T11:35:21;8.23;;;1.30;;
13269;SDS011;6703;51.994;7.570;2023-04-25T11:37:51;11.05;;;0.93;;
13269;SDS011;6703;51.994;7.570;2023-04-25T11:40:19;1.70;;;0.50;;
13269;SDS011;6703;51.994;7.570;2023-04-25T11:42:47;3.17;;;0.70;;
13269;SDS011;6703;51.994;7.570;2023-04-25T11:45:17;4.43;;;0.70;;
13269;SDS011;6703;51.994;7.570;2023-04-25T11:47:45;6.65;;;0.95;;
13269;SDS011;6703;51.994;7.570;2023-04-25T11:50:12;1.45;;;0.60;;
13269;SDS011;6703;51.994;7.570;2023-04-25T11:52:41;2.30;;;0.70;;
13269;SDS011;6703;51.994;7.570;2023-04-25T11:55:12;5.75;;;0.90;;
13269;SDS011;6703;51.994;7.570;2023-04-25T11:57:59;2.30;;;0.50;;
13269;SDS011;6703;51.994;7.570;2023-04-25T12:00:29;1.15;;;0.50;;
13269;SDS011;6703;51.994;7.570;2023-04-25T12:02:57;1.75;;;0.32;;
13269;SDS011;6703;51.994;7.570;2023-04-25T12:05:25;6.25;;;0.85;;
13269;SDS011;6703;51.994;7.570;2023-04-25T12:08:09;2.78;;;0.40;;
13269;SDS011;6703;51.994;7.570;2023-04-25T12:10:38;2.80;;;0.40;;
13269;SDS011;6703;51.994;7.570;2023-04-25T12:13:20;3.92;;;0.77;;
13269;SDS011;6703;51.994;7.570;2023-04-25T12:15:49;4.18;;;0.55;;
13269;SDS011;6703;51.994;7.570;2023-04-25T12:18:31;3.45;;;0.80;;
13269;SDS011;6703;51.994;7.570;2023-04-25T12:21:03;3.53;;;1.27;;
13269;SDS011;6703;51.994;7.570;2023-04-25T12:23:31;2.65;;;0.68;;
13269;SDS011;6703;51.994;7.570;2023-04-25T12:25:59;2.00;;;0.60;;
13269;SDS011;6703;51.994;7.570;2023-04-25T12:28:32;6.35;;;1.08;;
13269;SDS011;6703;51.994;7.570;2023-04-25T12:31:02;4.72;;;1.00;;
13269;SDS011;6703;51.994;7.570;2023-04-25T12:33:31;8.68;;;0.90;;
13269;SDS011;6703;51.994;7.570;2023-04-25T12:36:01;6.30;;;1.20;;
13269;SDS011;6703;51.994;7.570;2023-04-25T12:38:35;3.50;;;1.00;;
13269;SDS011;6703;51.994;7.570;2023-04-25T12:41:04;3.65;;;1.08;;
13269;SDS011;6703;51.994;7.570;2023-04-25T12:43:32;5.10;;;1.20;;
13269;SDS011;6703;51.994;7.570;2023-04-25T12:46:02;6.97;;;0.98;;
13269;SDS011;6703;51.994;7.570;2023-04-25T12:48:30;8.15;;;1.13;;
13269;SDS011;6703;51.994;7.570;2023-04-25T12:50:58;5.93;;;1.35;;
13269;SDS011;6703;51.994;7.570;2023-04-25T12:53:26;3.92;;;1.17;;
13269;SDS011;6703;51.994;7.570;2023-04-25T12:55:54;12.40;;;1.52;;
13269;SDS011;6703;51.994;7.570;2023-04-25T12:58:22;3.72;;;0.90;;
13269;SDS011;6703;51.994;7.570;2023-04-25T13:00:49;5.88;;;0.95;;
13269;SDS011;6703;51.994;7.570;2023-04-25T13:03:19;5.35;;;0.90;;
13269;SDS011;6703;51.994;7.570;2023-04-25T13:05:48;4.05;;;1.13;;
13269;SDS011;6703;51.994;7.570;2023-04-25T13:08:39;4.70;;;1.05;;
13269;SDS011;6703;51.994;7.570;2023-04-25T13:11:07;3.92;;;1.02;;
13269;SDS011;6703;51.994;7.570;2023-04-25T13:13:35;4.13;;;1.10;;
13269;SDS011;6703;51.994;7.570;2023-04-25T13:16:24;21.77;;;2.20;;
13269;SDS011;6703;51.994;7.570;2023-04-25T13:18:54;2.15;;;0.90;;
13269;SDS011;6703;51.994;7.570;2023-04-25T13:21:22;3.55;;;1.00;;
13269;SDS011;6703;51.994;7.570;2023-04-25T13:23:50;4.65;;;0.80;;
13269;SDS011;6703;51.994;7.570;2023-04-25T13:26:18;18.65;;;2.65;;
13269;SDS011;6703;51.994;7.570;2023-04-25T13:28:46;4.30;;;1.00;;
13269;SDS011;6703;51.994;7.570;2023-04-25T13:31:14;7.05;;;1.20;;
13269;SDS011;6703;51.994;7.570;2023-04-25T13:33:42;3.45;;;0.93;;
13269;SDS011;6703;51.994;7.570;2023-04-25T13:36:12;12.00;;;1.08;;
13269;SDS011;6703;51.994;7.570;2023-04-25T13:38:40;4.18;;;1.08;;
13269;SDS011;6703;51.994;7.570;2023-04-25T13:41:10;5.45;;;1.25;;
13269;SDS011;6703;51.994;7.570;2023-04-25T13:43:42;5.82;;;1.40;;
13269;SDS011;6703;51.994;7.570;2023-04-25T13:46:09;4.72;;;1.00;;
13269;SDS011;6703;51.994;7.570;2023-04-25T13:48:59;6.90;;;0.95;;
13269;SDS011;6703;51.994;7.570;2023-04-25T13:51:39;4.63;;;0.87;;
13269;SDS011;6703;51.994;7.570;2023-04-25T13:54:07;3.58;;;1.00;;
13269;SDS011;6703;51.994;7.570;2023-04-25T13:56:34;5.35;;;1.00;;
13269;SDS011;6703;51.994;7.570;2023-04-25T13:59:02;3.88;;;0.80;;
13269;SDS011;6703;51.994;7.570;2023-04-25T14:01:30;4.07;;;0.93;;
13269;SDS011;6703;51.994;7.570;2023-04-25T14:04:19;5.80;;;0.80;;
13269;SDS011;6703;51.994;7.570;2023-04-25T14:06:48;3.88;;;0.60;;
13269;SDS011;6703;51.994;7.570;2023-04-25T14:09:16;1.38;;;0.55;;
13269;SDS011;6703;51.994;7.570;2023-04-25T14:11:50;3.78;;;0.70;;
13269;SDS011;6703;51.994;7.570;2023-04-25T14:14:17;1.95;;;0.50;;
13269;SDS011;6703;51.994;7.570;2023-04-25T14:16:46;3.90;;;1.30;;
13269;SDS011;6703;51.994;7.570;2023-04-25T14:19:14;3.22;;;0.80;;
13269;SDS011;6703;51.994;7.570;2023-04-25T14:21:42;2.83;;;0.70;;
13269;SDS011;6703;51.994;7.570;2023-04-25T14:24:11;5.18;;;1.20;;
13269;SDS011;6703;51.994;7.570;2023-04-25T14:26:40;2.80;;;0.95;;
13269;SDS011;6703;51.994;7.570;2023-04-25T14:29:08;2.97;;;0.82;;
13269;SDS011;6703;51.994;7.570;2023-04-25T14:31:38;2.38;;;0.90;;
13269;SDS011;6703;51.994;7.570;2023-04-25T14:34:07;4.10;;;0.63;;
13269;SDS011;6703;51.994;7.570;2023-04-25T14:36:35;3.42;;;0.52;;
13269;SDS011;6703;51.994;7.570;2023-04-25T14:39:03;8.87;;;1.60;;
13269;SDS011;6703;51.994;7.570;2023-04-25T14:41:33;8.40;;;1.80;;
13269;SDS011;6703;51.994;7.570;2023-04-25T14:44:02;5.68;;;1.30;;
13269;SDS011;6703;51.994;7.570;2023-04-25T14:46:29;6.80;;;1.55;;
13269;SDS011;6703;51.994;7.570;2023-04-25T14:48:57;5.90;;;2.03;;
13269;SDS011;6703;51.994;7.570;2023-04-25T14:51:25;7.97;;;1.50;;
13269;SDS011;6703;51.994;7.570;2023-04-25T14:53:53;8.40;;;0.82;;
13269;SDS011;6703;51.994;7.570;2023-04-25T14:56:22;3.50;;;0.80;;
13269;SDS011;6703;51.994;7.570;2023-04-25T14:58:51;4.80;;;0.90;;
13269;SDS011;6703;51.994;7.570;2023-04-25T15:01:19;4.03;;;1.00;;
13269;SDS011;6703;51.994;7.570;2023-04-25T15:03:48;2.97;;;0.70;;
13269;SDS011;6703;51.994;7.570;2023-04-25T15:06:17;2.75;;;0.77;;
13269;SDS011;6703;51.994;7.570;2023-04-25T15:08:45;3.42;;;1.05;;
13269;SDS011;6703;51.994;7.570;2023-04-25T15:11:13;3.05;;;0.90;;